createdAt,value
2017-01-10T00:00:01.582Z,0
2017-01-10T00:01:00.801Z,0
2017-01-10T00:02:01.859Z,0
2017-01-10T00:03:00.470Z,0
2017-01-10T00:04:00.882Z,0
2017-01-10T00:05:01.568Z,0
2017-01-10T00:06:02.184Z,0
2017-01-10T00:07:00.900Z,0
2017-01-10T00:08:00.470Z,0
2017-01-10T00:09:00.887Z,0
2017-01-10T00:10:00.918Z,0
2017-01-10T00:11:00.971Z,0
2017-01-10T00:12:01.227Z,0
2017-01-10T00:13:02.001Z,0
2017-01-10T00:14:01.289Z,0
2017-01-10T00:15:00.849Z,0
2017-01-10T00:16:00.953Z,0
2017-01-10T00:17:02.012Z,0
2017-01-10T00:18:01.368Z,0
2017-01-10T00:19:00.977Z,0
2017-01-10T00:20:01.382Z,0
2017-01-10T00:21:00.886Z,0
2017-01-10T00:22:00.205Z,0
2017-01-10T00:23:00.658Z,0
2017-01-10T00:24:01.112Z,0
2017-01-10T00:25:01.862Z,0
2017-01-10T00:26:00.897Z,0
2017-01-10T00:27:01.328Z,0
2017-01-10T00:29:01.340Z,0
2017-01-10T00:30:00.759Z,0
2017-01-10T00:31:01.010Z,0
2017-01-10T00:32:01.065Z,0
2017-01-10T00:33:01.024Z,0
2017-01-10T00:34:01.375Z,0
2017-01-10T00:35:01.042Z,0
2017-01-10T00:36:01.094Z,0
2017-01-10T00:37:02.454Z,0
2017-01-10T00:38:01.506Z,0
2017-01-10T00:39:01.678Z,0
2017-01-10T00:40:01.133Z,0
2017-01-10T00:41:01.478Z,0
2017-01-10T00:42:01.092Z,0
2017-01-10T00:43:01.890Z,0
2017-01-10T00:44:01.546Z,0
2017-01-10T00:45:01.557Z,0
2017-01-10T00:46:01.063Z,0
2017-01-10T00:47:01.125Z,0
2017-01-10T00:48:02.826Z,0
2017-01-10T00:49:01.186Z,0
2017-01-10T00:50:01.591Z,0
2017-01-10T00:51:01.553Z,0
2017-01-10T00:52:02.530Z,0
2017-01-10T00:53:01.218Z,0
2017-01-10T00:54:00.827Z,0
2017-01-10T00:55:01.279Z,0
2017-01-10T00:56:01.636Z,0
2017-01-10T00:57:01.645Z,0
2017-01-10T00:58:01.714Z,0
2017-01-10T00:59:01.955Z,0
2017-01-10T01:00:01.956Z,0
2017-01-10T01:01:01.617Z,0
2017-01-10T01:02:01.234Z,0
2017-01-10T01:03:03.131Z,0
2017-01-10T01:04:01.593Z,0
2017-01-10T01:05:00.902Z,0
2017-01-10T01:06:01.658Z,0
2017-01-10T01:07:00.820Z,0
2017-01-10T01:08:00.924Z,0
2017-01-10T01:09:01.726Z,0
2017-01-10T01:10:02.233Z,0
2017-01-10T01:11:00.897Z,0
2017-01-10T01:12:01.746Z,0
2017-01-10T01:13:01.389Z,0
2017-01-10T01:14:02.513Z,0
2017-01-10T01:15:01.716Z,0
2017-01-10T01:16:01.378Z,0
2017-01-10T01:17:01.733Z,0
2017-01-10T01:18:01.291Z,0
2017-01-10T01:19:01.362Z,0
2017-01-10T01:20:01.436Z,0
2017-01-10T01:21:01.813Z,0
2017-01-10T01:22:01.474Z,0
2017-01-10T01:23:01.326Z,0
2017-01-10T01:24:01.827Z,0
2017-01-10T01:25:02.685Z,0
2017-01-10T01:26:01.356Z,0
2017-01-10T01:27:01.901Z,0
2017-01-10T01:28:01.812Z,0
2017-01-10T01:29:02.162Z,0
2017-01-10T01:30:01.429Z,0
2017-01-10T01:31:01.433Z,0
2017-01-10T01:32:01.492Z,0
2017-01-10T01:33:01.499Z,0
2017-01-10T01:34:02.828Z,0
2017-01-10T01:35:01.464Z,0
2017-01-10T01:36:02.770Z,0
2017-01-10T01:37:01.425Z,0
2017-01-10T01:38:01.818Z,0
2017-01-10T01:39:02.340Z,0
2017-01-10T01:40:01.103Z,0
2017-01-10T01:41:01.851Z,0
2017-01-10T01:42:02.009Z,0
2017-01-10T01:43:01.121Z,0
2017-01-10T01:44:01.176Z,0
2017-01-10T01:45:01.881Z,0
2017-01-10T01:46:01.144Z,0
2017-01-10T01:47:02.664Z,0
2017-01-10T01:48:02.395Z,0
2017-01-10T01:49:01.216Z,0
2017-01-10T01:50:01.271Z,0
2017-01-10T01:51:01.974Z,0
2017-01-10T01:52:01.526Z,0
2017-01-10T01:53:01.139Z,0
2017-01-10T01:54:01.298Z,0
2017-01-10T01:55:01.208Z,0
2017-01-10T01:56:02.579Z,0
2017-01-10T01:57:01.620Z,0
2017-01-10T01:58:02.663Z,0
2017-01-10T01:59:01.637Z,0
2017-01-10T02:00:01.738Z,0
2017-01-10T02:01:01.601Z,0
2017-01-10T02:02:01.258Z,0
2017-01-10T02:03:01.707Z,0
2017-01-10T02:04:01.764Z,0
2017-01-10T02:05:01.726Z,0
2017-01-10T02:06:01.281Z,0
2017-01-10T02:07:02.100Z,0
2017-01-10T02:08:02.043Z,0
2017-01-10T02:09:02.053Z,0
2017-01-10T02:10:01.708Z,0
2017-01-10T02:11:03.312Z,0
2017-01-10T02:12:01.823Z,0
2017-01-10T02:13:01.736Z,0
2017-01-10T02:14:01.738Z,0
2017-01-10T02:15:02.533Z,0
2017-01-10T02:16:02.155Z,0
2017-01-10T02:17:01.855Z,0
2017-01-10T02:18:02.263Z,0
2017-01-10T02:19:02.266Z,0
2017-01-10T02:20:01.434Z,0
2017-01-10T02:21:01.437Z,0
2017-01-10T02:22:03.290Z,0
2017-01-10T02:23:01.859Z,0
2017-01-10T02:24:02.253Z,0
2017-01-10T02:25:01.911Z,0
2017-01-10T02:26:02.265Z,0
2017-01-10T02:27:01.781Z,0
2017-01-10T02:28:02.330Z,0
2017-01-10T02:29:01.839Z,0
2017-01-10T02:30:02.296Z,0
2017-01-10T02:31:03.328Z,0
2017-01-10T02:32:01.470Z,0
2017-01-10T02:33:02.893Z,0
2017-01-10T02:34:01.882Z,0
2017-01-10T02:35:01.583Z,0
2017-01-10T02:36:02.684Z,0
2017-01-10T02:37:01.557Z,0
2017-01-10T02:38:01.564Z,0
2017-01-10T02:39:02.258Z,0
2017-01-10T02:40:02.366Z,0
2017-01-10T02:41:02.372Z,0
2017-01-10T02:42:03.451Z,0
2017-01-10T02:43:02.783Z,0
2017-01-10T02:44:02.502Z,0
2017-01-10T02:45:02.402Z,0
2017-01-10T02:46:04.103Z,0
2017-01-10T02:47:02.020Z,0
2017-01-10T02:48:01.187Z,0
2017-01-10T02:49:02.031Z,0
2017-01-10T02:50:02.386Z,0
2017-01-10T02:51:02.842Z,0
2017-01-10T02:52:02.005Z,0
2017-01-10T02:53:02.409Z,0
2017-01-10T02:54:02.066Z,0
2017-01-10T02:55:02.475Z,0
2017-01-10T02:56:01.735Z,0
2017-01-10T02:57:03.929Z,0
2017-01-10T02:58:08.619Z,0
2017-01-10T02:59:02.001Z,0
2017-01-10T03:00:02.899Z,0
2017-01-10T03:01:02.903Z,0
2017-01-10T03:02:02.173Z,0
2017-01-10T03:03:01.234Z,0
2017-01-10T03:04:01.641Z,0
2017-01-10T03:05:01.646Z,0
2017-01-10T03:06:02.496Z,0
2017-01-10T03:07:02.653Z,0
2017-01-10T03:08:03.806Z,0
2017-01-10T03:09:02.520Z,0
2017-01-10T03:10:02.628Z,0
2017-01-10T03:11:03.029Z,0
2017-01-10T03:12:01.405Z,0
2017-01-10T03:13:02.199Z,0
2017-01-10T03:14:02.605Z,0
2017-01-10T03:15:01.796Z,0
2017-01-10T03:16:03.017Z,0
2017-01-10T03:17:02.135Z,0
2017-01-10T03:18:02.142Z,0
2017-01-10T03:19:04.204Z,0
2017-01-10T03:20:02.543Z,0
2017-01-10T03:21:02.955Z,0
2017-01-10T03:22:02.262Z,0
2017-01-10T03:23:01.925Z,0
2017-01-10T03:24:02.229Z,0
2017-01-10T03:25:02.641Z,0
2017-01-10T03:26:02.636Z,0
2017-01-10T03:27:02.299Z,0
2017-01-10T03:29:02.410Z,0
2017-01-10T03:30:03.438Z,0
2017-01-10T03:31:02.277Z,0
2017-01-10T03:32:02.775Z,0
2017-01-10T03:33:02.287Z,0
2017-01-10T03:34:01.958Z,0
2017-01-10T03:35:03.449Z,0
2017-01-10T03:36:02.706Z,0
2017-01-10T03:37:02.762Z,0
2017-01-10T03:38:02.376Z,0
2017-01-10T03:39:02.777Z,0
2017-01-10T03:40:02.688Z,0
2017-01-10T03:41:03.793Z,0
2017-01-10T03:42:01.568Z,0
2017-01-10T03:43:02.319Z,0
2017-01-10T03:44:02.419Z,0
2017-01-10T03:45:02.815Z,0
2017-01-10T03:46:02.441Z,0
2017-01-10T03:47:02.337Z,0
2017-01-10T03:48:03.135Z,0
2017-01-10T03:49:02.800Z,0
2017-01-10T03:50:02.717Z,0
2017-01-10T03:51:02.810Z,0
2017-01-10T03:52:03.764Z,0
2017-01-10T03:53:02.826Z,0
2017-01-10T03:54:02.390Z,0
2017-01-10T03:55:02.480Z,0
2017-01-10T03:56:03.747Z,0
2017-01-10T03:57:02.161Z,0
2017-01-10T03:58:22.820Z,0
2017-01-10T03:59:03.258Z,0
2017-01-10T04:00:02.829Z,0
2017-01-10T04:01:02.437Z,0
2017-01-10T04:02:02.617Z,0
2017-01-10T04:03:03.846Z,0
2017-01-10T04:04:02.567Z,0
2017-01-10T04:05:02.516Z,0
2017-01-10T04:06:02.573Z,0
2017-01-10T04:07:03.433Z,0
2017-01-10T04:08:02.880Z,0
2017-01-10T04:09:03.385Z,0
2017-01-10T04:10:02.499Z,0
2017-01-10T04:11:02.213Z,0
2017-01-10T04:12:02.168Z,0
2017-01-10T04:13:02.669Z,0
2017-01-10T04:14:03.374Z,0
2017-01-10T04:15:02.983Z,0
2017-01-10T04:16:02.499Z,0
2017-01-10T04:17:02.250Z,0
2017-01-10T04:18:03.821Z,0
2017-01-10T04:19:01.767Z,0
2017-01-10T04:20:03.114Z,0
2017-01-10T04:21:02.682Z,0
2017-01-10T04:22:02.582Z,0
2017-01-10T04:23:03.089Z,0
2017-01-10T04:24:02.648Z,0
2017-01-10T04:25:03.053Z,0
2017-01-10T04:26:03.452Z,0
2017-01-10T04:27:03.084Z,0
2017-01-10T04:28:03.019Z,0
2017-01-10T04:29:03.482Z,0
2017-01-10T04:30:03.041Z,0
2017-01-10T04:31:03.241Z,0
2017-01-10T04:32:02.701Z,0
2017-01-10T04:33:02.808Z,0
2017-01-10T04:34:02.669Z,0
2017-01-10T04:35:03.226Z,0
2017-01-10T04:36:03.203Z,0
2017-01-10T04:37:03.080Z,0
2017-01-10T04:38:02.348Z,0
2017-01-10T04:39:02.857Z,0
2017-01-10T04:40:03.552Z,0
2017-01-10T04:41:02.811Z,0
2017-01-10T04:42:02.881Z,0
2017-01-10T04:43:02.634Z,0
2017-01-10T04:44:03.229Z,0
2017-01-10T04:45:03.338Z,0
2017-01-10T04:46:02.838Z,0
2017-01-10T04:47:02.805Z,0
2017-01-10T04:48:03.556Z,0
2017-01-10T04:49:04.419Z,0
2017-01-10T04:50:03.669Z,0
2017-01-10T04:51:03.146Z,0
2017-01-10T04:52:03.237Z,0
2017-01-10T04:53:03.322Z,0
2017-01-10T04:54:02.960Z,0
2017-01-10T04:55:03.076Z,0
2017-01-10T04:56:03.616Z,0
2017-01-10T04:57:02.826Z,0
2017-01-10T04:58:02.932Z,0
2017-01-10T04:59:02.448Z,0
2017-01-10T05:00:03.879Z,0
2017-01-10T05:01:03.516Z,0
2017-01-10T05:02:03.564Z,0
2017-01-10T05:03:02.970Z,0
2017-01-10T05:04:02.977Z,0
2017-01-10T05:05:02.884Z,0
2017-01-10T05:06:03.337Z,0
2017-01-10T05:07:03.050Z,0
2017-01-10T05:08:02.262Z,0
2017-01-10T05:09:03.803Z,0
2017-01-10T05:10:03.373Z,0
2017-01-10T05:11:03.882Z,0
2017-01-10T05:12:03.428Z,0
2017-01-10T05:13:03.651Z,0
2017-01-10T05:14:03.098Z,0
2017-01-10T05:15:04.801Z,0
2017-01-10T05:16:02.668Z,0
2017-01-10T05:17:02.973Z,0
2017-01-10T05:18:03.075Z,0
2017-01-10T05:19:03.565Z,0
2017-01-10T05:20:02.589Z,0
2017-01-10T05:21:03.493Z,0
2017-01-10T05:22:03.153Z,0
2017-01-10T05:23:03.038Z,0
2017-01-10T05:24:03.667Z,0
2017-01-10T05:25:03.581Z,0
2017-01-10T05:26:04.637Z,0
2017-01-10T05:27:03.087Z,0
2017-01-10T05:28:03.449Z,0
2017-01-10T05:29:03.151Z,0
2017-01-10T05:30:03.906Z,0
2017-01-10T05:31:03.216Z,0
2017-01-10T05:32:03.916Z,0
2017-01-10T05:33:03.240Z,0
2017-01-10T05:34:03.196Z,0
2017-01-10T05:35:03.097Z,0
2017-01-10T05:36:03.993Z,0
2017-01-10T05:37:04.805Z,0
2017-01-10T05:38:02.821Z,0
2017-01-10T05:39:04.074Z,0
2017-01-10T05:40:02.771Z,0
2017-01-10T05:41:03.189Z,0
2017-01-10T05:42:02.904Z,0
2017-01-10T05:43:03.300Z,0
2017-01-10T05:44:03.705Z,0
2017-01-10T05:45:02.521Z,0
2017-01-10T05:46:03.618Z,0
2017-01-10T05:47:02.390Z,0
2017-01-10T05:48:04.736Z,0
2017-01-10T05:49:03.554Z,0
2017-01-10T05:50:03.703Z,0
2017-01-10T05:51:03.260Z,0
2017-01-10T05:52:04.013Z,0
2017-01-10T05:53:03.224Z,0
2017-01-10T05:54:04.203Z,0
2017-01-10T05:55:03.089Z,0
2017-01-10T05:56:03.342Z,0
2017-01-10T05:57:03.696Z,0
2017-01-10T05:58:13.572Z,0
2017-01-10T05:59:04.320Z,0
2017-01-10T06:00:04.115Z,0
2017-01-10T06:01:03.541Z,0
2017-01-10T06:02:03.732Z,0
2017-01-10T06:03:04.185Z,0
2017-01-10T06:04:03.746Z,0
2017-01-10T06:05:03.011Z,0
2017-01-10T06:06:04.155Z,0
2017-01-10T06:07:04.158Z,0
2017-01-10T06:08:03.376Z,0
2017-01-10T06:09:03.483Z,0
2017-01-10T06:10:04.639Z,0
2017-01-10T06:11:03.851Z,0
2017-01-10T06:12:03.798Z,0
2017-01-10T06:13:03.064Z,0
2017-01-10T06:14:03.463Z,0
2017-01-10T06:15:03.871Z,0
2017-01-10T06:16:03.826Z,0
2017-01-10T06:17:03.439Z,0
2017-01-10T06:18:03.451Z,0
2017-01-10T06:19:03.899Z,0
2017-01-10T06:20:03.908Z,0
2017-01-10T06:21:04.119Z,0
2017-01-10T06:22:03.869Z,0
2017-01-10T06:23:05.311Z,0
2017-01-10T06:24:03.487Z,0
2017-01-10T06:25:04.502Z,0
2017-01-10T06:26:03.136Z,0
2017-01-10T06:27:03.958Z,0
2017-01-10T06:28:04.389Z,0
2017-01-10T06:29:04.321Z,0
2017-01-10T06:30:03.876Z,0
2017-01-10T06:31:03.938Z,0
2017-01-10T06:32:04.293Z,0
2017-01-10T06:33:03.603Z,0
2017-01-10T06:34:03.159Z,0
2017-01-10T06:35:04.409Z,0
2017-01-10T06:36:04.465Z,0
2017-01-10T06:37:03.199Z,0
2017-01-10T06:38:03.587Z,0
2017-01-10T06:39:03.550Z,0
2017-01-10T06:40:03.688Z,0
2017-01-10T06:41:03.659Z,0
2017-01-10T06:42:04.016Z,0
2017-01-10T06:43:04.068Z,0
2017-01-10T06:44:04.027Z,0
2017-01-10T06:45:05.663Z,0
2017-01-10T06:46:03.597Z,0
2017-01-10T06:47:04.487Z,0
2017-01-10T06:48:04.054Z,0
2017-01-10T06:49:03.767Z,0
2017-01-10T06:50:03.701Z,0
2017-01-10T06:51:04.075Z,0
2017-01-10T06:52:03.741Z,0
2017-01-10T06:53:03.346Z,0
2017-01-10T06:54:04.052Z,0
2017-01-10T06:55:03.463Z,0
2017-01-10T06:56:05.462Z,0
2017-01-10T06:57:03.725Z,0
2017-01-10T06:58:03.997Z,0
2017-01-10T06:59:03.338Z,0
2017-01-10T07:00:04.142Z,0
2017-01-10T07:01:04.195Z,0
2017-01-10T07:02:03.809Z,0
2017-01-10T07:03:03.765Z,0
2017-01-10T07:04:03.923Z,0
2017-01-10T07:05:03.733Z,0
2017-01-10T07:06:03.444Z,0
2017-01-10T07:07:05.096Z,0
2017-01-10T07:08:03.350Z,0
2017-01-10T07:09:04.255Z,0
2017-01-10T07:10:03.920Z,0
2017-01-10T07:11:03.473Z,0
2017-01-10T07:12:03.885Z,0
2017-01-10T07:13:04.285Z,0
2017-01-10T07:14:03.889Z,0
2017-01-10T07:15:04.693Z,0
2017-01-10T07:16:04.249Z,0
2017-01-10T07:17:05.310Z,0
2017-01-10T07:18:04.972Z,0
2017-01-10T07:19:03.930Z,0
2017-01-10T07:20:03.795Z,0
2017-01-10T07:21:04.286Z,0
2017-01-10T07:22:03.452Z,0
2017-01-10T07:23:03.583Z,0
2017-01-10T07:24:03.572Z,0
2017-01-10T07:25:03.970Z,0
2017-01-10T07:26:03.927Z,0
2017-01-10T07:27:04.636Z,0
2017-01-10T07:28:04.436Z,0
2017-01-10T07:29:04.952Z,0
2017-01-10T07:30:04.349Z,0
2017-01-10T07:31:04.070Z,0
2017-01-10T07:32:03.584Z,0
2017-01-10T07:33:03.284Z,0
2017-01-10T07:34:03.627Z,0
2017-01-10T07:35:04.021Z,0
2017-01-10T07:36:03.659Z,0
2017-01-10T07:37:03.266Z,0
2017-01-10T07:38:04.063Z,0
2017-01-10T07:39:03.676Z,0
2017-01-10T07:40:04.431Z,0
2017-01-10T07:41:04.092Z,0
2017-01-10T07:42:03.796Z,0
2017-01-10T07:43:04.498Z,0
2017-01-10T07:44:05.060Z,0
2017-01-10T07:45:04.955Z,0
2017-01-10T07:46:05.115Z,0
2017-01-10T07:47:04.576Z,0
2017-01-10T07:48:03.741Z,0
2017-01-10T07:49:04.488Z,0
2017-01-10T07:50:04.842Z,0
2017-01-10T07:51:04.236Z,0
2017-01-10T07:52:03.721Z,0
2017-01-10T07:53:05.728Z,0
2017-01-10T07:54:03.396Z,0
2017-01-10T07:55:04.800Z,0
2017-01-10T07:56:04.200Z,0
2017-01-10T07:57:04.159Z,0
2017-01-10T07:58:03.797Z,0
2017-01-10T07:59:04.175Z,0
2017-01-10T08:00:03.783Z,0
2017-01-10T08:01:04.634Z,0
2017-01-10T08:02:04.245Z,0
2017-01-10T08:03:04.650Z,0
2017-01-10T08:04:05.463Z,0
2017-01-10T08:05:04.166Z,0
2017-01-10T08:06:04.327Z,0
2017-01-10T08:07:04.630Z,0
2017-01-10T08:08:05.985Z,0
2017-01-10T08:09:05.044Z,0
2017-01-10T08:10:04.317Z,0
2017-01-10T08:11:04.662Z,0
2017-01-10T08:12:05.114Z,0
2017-01-10T08:13:04.332Z,0
2017-01-10T08:14:04.686Z,0
2017-01-10T08:15:05.594Z,0
2017-01-10T08:16:04.208Z,0
2017-01-10T08:17:04.712Z,0
2017-01-10T08:18:03.577Z,0
2017-01-10T08:19:05.777Z,0
2017-01-10T08:20:04.338Z,0
2017-01-10T08:21:04.451Z,0
2017-01-10T08:22:04.744Z,0
2017-01-10T08:23:04.409Z,0
2017-01-10T08:24:03.977Z,0
2017-01-10T08:25:04.079Z,0
2017-01-10T08:26:05.232Z,0
2017-01-10T08:27:03.994Z,0
2017-01-10T08:28:04.459Z,0
2017-01-10T08:29:04.455Z,5
2017-01-10T08:30:05.707Z,5
2017-01-10T08:31:04.028Z,5
2017-01-10T08:32:04.685Z,5
2017-01-10T08:33:05.286Z,5
2017-01-10T08:34:04.502Z,5
2017-01-10T08:35:04.979Z,5
2017-01-10T08:36:04.856Z,5
2017-01-10T08:37:04.575Z,5
2017-01-10T08:38:04.482Z,5
2017-01-10T08:39:04.492Z,5
2017-01-10T08:40:04.498Z,5
2017-01-10T08:41:05.401Z,5
2017-01-10T08:42:04.162Z,5
2017-01-10T08:43:06.765Z,5
2017-01-10T08:44:05.072Z,5
2017-01-10T08:45:04.538Z,5
2017-01-10T08:46:04.492Z,5
2017-01-10T08:47:04.900Z,5
2017-01-10T08:48:04.264Z,5
2017-01-10T08:49:04.616Z,10
2017-01-10T08:50:05.747Z,10
2017-01-10T08:51:04.189Z,10
2017-01-10T08:52:05.435Z,10
2017-01-10T08:53:05.389Z,15
2017-01-10T08:54:04.163Z,15
2017-01-10T08:55:04.966Z,15
2017-01-10T08:56:05.465Z,15
2017-01-10T08:57:05.175Z,15
2017-01-10T08:58:04.695Z,10
2017-01-10T08:59:04.993Z,10
2017-01-10T09:00:04.771Z,5
2017-01-10T09:01:05.910Z,5
2017-01-10T09:02:05.168Z,10
2017-01-10T09:03:04.987Z,10
2017-01-10T09:04:05.084Z,5
2017-01-10T09:05:06.277Z,5
2017-01-10T09:06:04.706Z,10
2017-01-10T09:07:04.765Z,10
2017-01-10T09:08:05.169Z,10
2017-01-10T09:09:04.381Z,10
2017-01-10T09:10:04.746Z,5
2017-01-10T09:11:05.343Z,10
2017-01-10T09:12:05.859Z,5
2017-01-10T09:13:05.155Z,5
2017-01-10T09:14:05.610Z,5
2017-01-10T09:15:04.826Z,5
2017-01-10T09:16:05.987Z,5
2017-01-10T09:17:05.240Z,10
2017-01-10T09:18:05.606Z,10
2017-01-10T09:19:04.760Z,5
2017-01-10T09:20:05.317Z,5
2017-01-10T09:21:05.768Z,10
2017-01-10T09:22:05.282Z,15
2017-01-10T09:23:05.345Z,15
2017-01-10T09:24:05.248Z,15
2017-01-10T09:25:05.678Z,20
2017-01-10T09:26:04.224Z,25
2017-01-10T09:27:06.078Z,30
2017-01-10T09:28:05.778Z,30
2017-01-10T09:29:04.945Z,20
2017-01-10T09:30:05.349Z,20
2017-01-10T09:31:05.354Z,20
2017-01-10T09:32:05.016Z,20
2017-01-10T09:33:05.376Z,15
2017-01-10T09:34:04.939Z,15
2017-01-10T09:35:05.394Z,10
2017-01-10T09:36:04.660Z,10
2017-01-10T09:37:05.410Z,10
2017-01-10T09:38:06.266Z,5
2017-01-10T09:39:05.366Z,5
2017-01-10T09:40:05.532Z,5
2017-01-10T09:41:05.090Z,5
2017-01-10T09:42:04.999Z,5
2017-01-10T09:43:04.816Z,5
2017-01-10T09:44:05.460Z,10
2017-01-10T09:45:05.019Z,10
2017-01-10T09:46:04.635Z,10
2017-01-10T09:47:05.437Z,15
2017-01-10T09:48:05.446Z,15
2017-01-10T09:49:06.312Z,15
2017-01-10T09:50:05.905Z,15
2017-01-10T09:51:05.018Z,15
2017-01-10T09:52:05.628Z,20
2017-01-10T09:53:04.692Z,20
2017-01-10T09:54:05.645Z,15
2017-01-10T09:55:05.473Z,15
2017-01-10T09:56:05.049Z,15
2017-01-10T09:57:05.073Z,15
2017-01-10T09:58:06.503Z,20
2017-01-10T09:59:04.348Z,20
2017-01-10T10:00:06.449Z,25
2017-01-10T10:01:04.752Z,35
2017-01-10T10:02:05.206Z,35
2017-01-10T10:03:05.216Z,30
2017-01-10T10:04:05.273Z,30
2017-01-10T10:05:05.980Z,35
2017-01-10T10:06:04.896Z,45
2017-01-10T10:07:04.858Z,50
2017-01-10T10:08:05.653Z,45
2017-01-10T10:09:05.612Z,45
2017-01-10T10:10:05.964Z,45
2017-01-10T10:11:05.989Z,50
2017-01-10T10:12:05.341Z,50
2017-01-10T10:13:05.349Z,45
2017-01-10T10:14:04.920Z,40
2017-01-10T10:15:05.708Z,30
2017-01-10T10:16:05.224Z,25
2017-01-10T10:17:05.428Z,20
2017-01-10T10:18:05.683Z,20
2017-01-10T10:19:05.299Z,20
2017-01-10T10:20:04.468Z,20
2017-01-10T10:21:05.706Z,20
2017-01-10T10:22:05.392Z,20
2017-01-10T10:23:04.932Z,20
2017-01-10T10:24:07.190Z,20
2017-01-10T10:25:05.294Z,15
2017-01-10T10:26:05.853Z,15
2017-01-10T10:27:04.966Z,15
2017-01-10T10:28:05.815Z,25
2017-01-10T10:29:05.845Z,25
2017-01-10T10:30:05.830Z,25
2017-01-10T10:31:06.140Z,30
2017-01-10T10:32:06.869Z,30
2017-01-10T10:33:05.056Z,30
2017-01-10T10:34:05.017Z,25
2017-01-10T10:35:07.021Z,25
2017-01-10T10:36:05.038Z,25
2017-01-10T10:37:05.794Z,25
2017-01-10T10:38:05.992Z,25
2017-01-10T10:39:05.532Z,25
2017-01-10T10:40:05.066Z,25
2017-01-10T10:41:06.216Z,25
2017-01-10T10:42:06.323Z,20
2017-01-10T10:43:05.195Z,20
2017-01-10T10:44:05.943Z,20
2017-01-10T10:45:05.106Z,15
2017-01-10T10:46:06.856Z,15
2017-01-10T10:47:05.515Z,15
2017-01-10T10:48:06.025Z,15
2017-01-10T10:49:05.190Z,10
2017-01-10T10:50:05.939Z,10
2017-01-10T10:51:06.341Z,10
2017-01-10T10:52:06.405Z,10
2017-01-10T10:53:05.620Z,10
2017-01-10T10:54:06.421Z,10
2017-01-10T10:55:05.681Z,10
2017-01-10T10:56:05.192Z,10
2017-01-10T10:57:07.052Z,10
2017-01-10T10:58:06.520Z,10
2017-01-10T10:59:05.613Z,10
2017-01-10T11:00:05.727Z,10
2017-01-10T11:01:05.677Z,10
2017-01-10T11:02:06.088Z,10
2017-01-10T11:03:05.351Z,10
2017-01-10T11:04:06.108Z,10
2017-01-10T11:05:06.028Z,10
2017-01-10T11:06:06.117Z,10
2017-01-10T11:07:05.725Z,10
2017-01-10T11:08:07.476Z,10
2017-01-10T11:09:06.188Z,10
2017-01-10T11:10:06.150Z,10
2017-01-10T11:11:05.718Z,15
2017-01-10T11:12:06.607Z,15
2017-01-10T11:13:05.350Z,15
2017-01-10T11:14:05.780Z,15
2017-01-10T11:15:06.499Z,15
2017-01-10T11:16:05.856Z,15
2017-01-10T11:17:06.714Z,15
2017-01-10T11:18:05.814Z,15
2017-01-10T11:19:08.470Z,15
2017-01-10T11:20:05.888Z,15
2017-01-10T11:21:05.837Z,15
2017-01-10T11:22:06.289Z,15
2017-01-10T11:23:20.681Z,15
2017-01-10T11:24:05.416Z,15
2017-01-10T11:25:05.819Z,15
2017-01-10T11:26:05.848Z,15
2017-01-10T11:27:05.893Z,20
2017-01-10T11:28:06.543Z,20
2017-01-10T11:29:06.392Z,20
2017-01-10T11:30:06.661Z,20
2017-01-10T11:31:06.196Z,20
2017-01-10T11:32:05.874Z,20
2017-01-10T11:33:05.988Z,20
2017-01-10T11:34:06.452Z,20
2017-01-10T11:35:06.368Z,20
2017-01-10T11:36:06.423Z,20
2017-01-10T11:37:06.521Z,20
2017-01-10T11:38:06.081Z,25
2017-01-10T11:39:07.078Z,25
2017-01-10T11:40:05.990Z,25
2017-01-10T11:41:06.842Z,25
2017-01-10T11:42:05.689Z,20
2017-01-10T11:43:06.768Z,20
2017-01-10T11:44:07.851Z,20
2017-01-10T11:45:06.553Z,25
2017-01-10T11:46:07.608Z,25
2017-01-10T11:47:06.022Z,25
2017-01-10T11:48:06.501Z,25
2017-01-10T11:49:06.091Z,25
2017-01-10T11:50:06.090Z,25
2017-01-10T11:51:07.951Z,25
2017-01-10T11:52:06.434Z,25
2017-01-10T11:53:06.581Z,20
2017-01-10T11:54:06.223Z,20
2017-01-10T11:55:06.455Z,25
2017-01-10T11:56:06.642Z,25
2017-01-10T11:57:05.627Z,25
2017-01-10T11:58:08.077Z,25
2017-01-10T11:59:06.604Z,25
2017-01-10T12:00:05.884Z,25
2017-01-10T12:01:05.801Z,25
2017-01-10T12:02:06.609Z,25
2017-01-10T12:03:06.312Z,25
2017-01-10T12:04:06.075Z,25
2017-01-10T12:05:06.201Z,25
2017-01-10T12:06:06.593Z,25
2017-01-10T12:07:05.982Z,25
2017-01-10T12:08:06.789Z,25
2017-01-10T12:09:07.660Z,25
2017-01-10T12:10:05.871Z,25
2017-01-10T12:11:05.880Z,25
2017-01-10T12:12:06.843Z,30
2017-01-10T12:13:06.650Z,30
2017-01-10T12:14:07.331Z,30
2017-01-10T12:15:06.356Z,30
2017-01-10T12:16:06.776Z,30
2017-01-10T12:17:06.482Z,30
2017-01-10T12:18:06.640Z,30
2017-01-10T12:19:07.176Z,30
2017-01-10T12:20:06.310Z,30
2017-01-10T12:21:06.389Z,30
2017-01-10T12:22:06.753Z,30
2017-01-10T12:23:07.395Z,30
2017-01-10T12:24:06.541Z,25
2017-01-10T12:25:06.002Z,25
2017-01-10T12:26:06.208Z,25
2017-01-10T12:27:06.398Z,25
2017-01-10T12:28:07.301Z,25
2017-01-10T12:29:06.384Z,25
2017-01-10T12:30:09.146Z,25
2017-01-10T12:31:06.950Z,25
2017-01-10T12:32:06.850Z,25
2017-01-10T12:33:07.237Z,25
2017-01-10T12:34:06.021Z,25
2017-01-10T12:35:07.323Z,25
2017-01-10T12:36:06.840Z,25
2017-01-10T12:37:09.428Z,25
2017-01-10T12:38:07.471Z,25
2017-01-10T12:39:06.162Z,20
2017-01-10T12:40:06.945Z,25
2017-01-10T12:41:06.029Z,25
2017-01-10T12:42:07.544Z,25
2017-01-10T12:43:07.094Z,25
2017-01-10T12:44:08.048Z,25
2017-01-10T12:45:07.335Z,20
2017-01-10T12:46:06.137Z,20
2017-01-10T12:47:06.177Z,20
2017-01-10T12:48:06.558Z,20
2017-01-10T12:49:07.711Z,20
2017-01-10T12:50:06.731Z,20
2017-01-10T12:51:07.377Z,20
2017-01-10T12:52:06.762Z,20
2017-01-10T12:53:07.967Z,20
2017-01-10T12:54:07.101Z,20
2017-01-10T12:55:07.008Z,20
2017-01-10T12:56:07.134Z,20
2017-01-10T12:57:07.533Z,20
2017-01-10T12:58:07.468Z,20
2017-01-10T12:59:06.764Z,15
2017-01-10T13:00:07.075Z,15
2017-01-10T13:01:06.675Z,15
2017-01-10T13:02:07.807Z,15
2017-01-10T13:03:07.224Z,15
2017-01-10T13:04:06.345Z,15
2017-01-10T13:05:07.722Z,15
2017-01-10T13:06:06.851Z,15
2017-01-10T13:07:06.795Z,15
2017-01-10T13:08:06.841Z,15
2017-01-10T13:09:07.149Z,20
2017-01-10T13:10:07.818Z,20
2017-01-10T13:11:06.826Z,20
2017-01-10T13:12:07.827Z,20
2017-01-10T13:13:07.642Z,20
2017-01-10T13:14:07.198Z,20
2017-01-10T13:15:07.219Z,20
2017-01-10T13:16:06.844Z,20
2017-01-10T13:17:08.700Z,20
2017-01-10T13:18:07.831Z,20
2017-01-10T13:19:07.702Z,20
2017-01-10T13:20:07.373Z,20
2017-01-10T13:21:07.629Z,20
2017-01-10T13:22:07.480Z,25
2017-01-10T13:23:06.947Z,25
2017-01-10T13:24:07.807Z,25
2017-01-10T13:25:07.897Z,25
2017-01-10T13:26:07.492Z,30
2017-01-10T13:27:07.027Z,30
2017-01-10T13:28:06.991Z,30
2017-01-10T13:29:07.900Z,30
2017-01-10T13:30:07.568Z,30
2017-01-10T13:31:08.179Z,30
2017-01-10T13:32:06.972Z,25
2017-01-10T13:33:07.827Z,25
2017-01-10T13:34:07.508Z,25
2017-01-10T13:35:06.906Z,20
2017-01-10T13:36:07.676Z,20
2017-01-10T13:37:06.550Z,20
2017-01-10T13:38:07.385Z,20
2017-01-10T13:39:06.703Z,15
2017-01-10T13:40:06.134Z,15
2017-01-10T13:41:08.054Z,15
2017-01-10T13:42:07.132Z,15
2017-01-10T13:43:09.145Z,15
2017-01-10T13:44:08.008Z,15
2017-01-10T13:45:07.527Z,15
2017-01-10T13:46:07.727Z,15
2017-01-10T13:47:07.928Z,15
2017-01-10T13:48:08.489Z,15
2017-01-10T13:49:06.778Z,10
2017-01-10T13:50:06.659Z,10
2017-01-10T13:51:08.128Z,10
2017-01-10T13:52:07.913Z,10
2017-01-10T13:53:07.477Z,10
2017-01-10T13:54:08.127Z,10
2017-01-10T13:55:09.280Z,10
2017-01-10T13:56:07.553Z,10
2017-01-10T13:57:07.176Z,10
2017-01-10T13:58:07.995Z,10
2017-01-10T13:59:06.897Z,10
2017-01-10T14:00:08.968Z,10
2017-01-10T14:01:07.298Z,10
2017-01-10T14:02:06.909Z,10
2017-01-10T14:03:08.104Z,10
2017-01-10T14:04:06.894Z,10
2017-01-10T14:05:09.109Z,10
2017-01-10T14:06:07.706Z,10
2017-01-10T14:07:07.356Z,10
2017-01-10T14:08:07.276Z,10
2017-01-10T14:09:07.270Z,10
2017-01-10T14:10:07.433Z,10
2017-01-10T14:11:07.784Z,10
2017-01-10T14:12:07.988Z,10
2017-01-10T14:13:07.321Z,10
2017-01-10T14:14:07.327Z,10
2017-01-10T14:15:07.068Z,10
2017-01-10T14:16:07.654Z,10
2017-01-10T14:17:08.361Z,10
2017-01-10T14:18:08.361Z,10
2017-01-10T14:19:08.850Z,10
2017-01-10T14:20:07.685Z,10
2017-01-10T14:21:08.319Z,10
2017-01-10T14:22:07.085Z,10
2017-01-10T14:23:08.322Z,10
2017-01-10T14:24:07.697Z,10
2017-01-10T14:25:08.546Z,10
2017-01-10T14:26:07.831Z,10
2017-01-10T14:27:08.320Z,10
2017-01-10T14:28:07.950Z,10
2017-01-10T14:29:08.412Z,10
2017-01-10T14:30:07.448Z,10
2017-01-10T14:31:07.971Z,10
2017-01-10T14:32:07.851Z,10
2017-01-10T14:33:07.850Z,5
2017-01-10T14:34:08.036Z,5
2017-01-10T14:35:07.907Z,5
2017-01-10T14:36:09.172Z,5
2017-01-10T14:37:07.208Z,5